Time;durP1;ratioP1;P1;durP2;ratioP2;P2;SDS_P1;SDS_P2;PMS_P1;PMS_P2;Temp;Humidity;BMP_temperature;BMP_pressure;BME280_temperature;BME280_humidity;BME280_pressure;Samples;Min_cycle;Max_cycle;Signal;HPM_P1;HPM_P2
2022/08/26 00:01:22;;;;;;;9.70;5.78;;;;;;;25.10;52.00;100173.31;4141045;28;20074;-65
2022/08/26 00:03:31;;;;;;;9.60;5.35;;;;;;;25.07;52.22;100177.03;4140850;28;20049;-65
2022/08/26 00:05:34;;;;;;;8.38;5.05;;;;;;;25.05;52.01;100178.03;4140477;28;20065;-64
2022/08/26 00:07:37;;;;;;;6.47;5.05;;;;;;;25.05;52.25;100178.03;4123519;28;20066;-65
2022/08/26 00:09:40;;;;;;;8.57;5.82;;;;;;;25.13;52.00;100174.97;4137992;28;20044;-65
2022/08/26 00:11:48;;;;;;;6.63;5.07;;;;;;;25.08;51.98;100176.06;4141382;28;20034;-65
2022/08/26 00:13:52;;;;;;;7.07;5.03;;;;;;;24.99;52.55;100173.03;4145632;28;20516;-65
2022/08/26 00:15:55;;;;;;;5.28;4.28;;;;;;;25.01;52.61;100172.00;4145128;28;20048;-66
2022/08/26 00:18:00;;;;;;;11.05;5.28;;;;;;;25.00;52.94;100164.97;4140353;28;20038;-65
2022/08/26 00:20:03;;;;;;;;;;;;;;;24.84;53.08;100172.84;4140660;28;20453;-65
2022/08/26 00:22:06;;;;;;;6.20;5.22;;;;;;;24.88;52.87;100168.22;4142085;28;19975;-65
2022/08/26 00:24:09;;;;;;;9.00;6.18;;;;;;;24.96;53.09;100171.38;4140960;28;20612;-65
2022/08/26 00:26:12;;;;;;;7.53;5.07;;;;;;;24.90;52.85;100171.69;4139661;28;20492;-65
2022/08/26 00:28:15;;;;;;;9.50;5.82;;;;;;;24.85;52.71;100179.03;4140989;28;20471;-65
2022/08/26 00:30:27;;;;;;;10.70;5.80;;;;;;;24.77;52.91;100167.94;4139916;28;20145;-65
2022/08/26 00:32:30;;;;;;;8.48;4.82;;;;;;;24.76;52.75;100172.38;4141240;28;20562;-65
2022/08/26 00:34:34;;;;;;;8.15;5.53;;;;;;;24.78;52.67;100169.63;4143715;28;21092;-65
2022/08/26 00:36:38;;;;;;;10.98;4.75;;;;;;;24.76;52.38;100167.03;4147204;28;20033;-65
2022/08/26 00:38:42;;;;;;;7.93;5.57;;;;;;;24.71;52.30;100167.28;4142288;28;20546;-65
2022/08/26 00:40:51;;;;;;;9.10;5.22;;;;;;;24.71;51.87;100164.63;4155808;28;20034;-65
2022/08/26 00:42:56;;;;;;;6.65;5.20;;;;;;;24.71;52.07;100169.09;4140451;28;20070;-65
2022/08/26 00:44:58;;;;;;;7.47;4.63;;;;;;;24.68;52.38;100167.44;4139664;28;20038;-65
2022/08/26 00:47:05;;;;;;;6.55;5.15;;;;;;;24.66;52.31;100171.09;4141004;28;20049;-65
2022/08/26 00:49:13;;;;;;;7.05;5.18;;;;;;;24.67;52.48;100171.03;4143854;28;20157;-65
2022/08/26 00:51:22;;;;;;;7.15;5.13;;;;;;;24.69;52.67;100168.28;4137299;28;20527;-65
2022/08/26 00:53:31;;;;;;;8.00;5.20;;;;;;;24.72;52.43;100163.69;4139614;28;20042;-65
2022/08/26 00:55:39;;;;;;;6.72;5.25;;;;;;;24.67;52.75;100159.53;4142660;28;20403;-65
2022/08/26 00:57:42;;;;;;;10.00;5.30;;;;;;;24.61;52.91;100162.50;4140693;28;20048;-65
2022/08/26 00:59:51;;;;;;;8.43;5.55;;;;;;;24.61;52.81;100162.50;4137823;28;20044;-66
2022/08/26 01:01:54;;;;;;;10.25;5.78;;;;;;;24.54;52.90;100164.56;4141667;28;20042;-65
2022/08/26 01:03:59;;;;;;;7.20;5.03;;;;;;;24.50;52.82;100168.28;4161824;28;20499;-65
2022/08/26 01:06:05;;;;;;;7.30;5.43;;;;;;;24.41;53.08;100164.28;4143625;28;20026;-65
2022/08/26 01:08:15;;;;;;;8.82;4.97;;;;;;;24.40;53.19;100166.09;4139491;28;20149;-65
2022/08/26 01:10:22;;;;;;;7.45;5.55;;;;;;;24.38;52.97;100167.94;4146364;28;20034;-65
2022/08/26 01:12:28;;;;;;;8.80;5.63;;;;;;;24.33;53.05;100169.13;4148362;28;20548;-65
2022/08/26 01:14:35;;;;;;;8.15;5.80;;;;;;;24.32;53.23;100173.56;4147768;28;20042;-65
2022/08/26 01:16:38;;;;;;;8.35;5.60;;;;;;;24.35;52.97;100168.09;4147519;28;20030;-65
2022/08/26 01:18:45;;;;;;;7.22;5.22;;;;;;;24.35;53.17;100173.41;4147117;28;20048;-65
2022/08/26 01:20:57;;;;;;;6.82;4.65;;;;;;;24.36;53.22;100171.63;4163757;28;20438;-65
2022/08/26 01:23:05;;;;;;;6.57;4.75;;;;;;;24.35;53.22;100161.94;4147668;28;20100;-65
2022/08/26 01:25:11;;;;;;;8.15;5.80;;;;;;;24.28;53.33;100171.97;4138884;28;20088;-65
2022/08/26 01:27:18;;;;;;;6.27;4.63;;;;;;;24.27;53.50;100174.72;4140524;28;20061;-65
2022/08/26 01:29:21;;;;;;;6.22;5.35;;;;;;;24.28;53.30;100171.13;4147332;28;20363;-65
2022/08/26 01:31:28;;;;;;;8.75;5.85;;;;;;;24.28;53.26;100171.97;4132049;28;20117;-65
2022/08/26 01:33:37;;;;;;;10.80;5.80;;;;;;;24.24;53.45;100173.09;4131996;28;20094;-65
2022/08/26 01:35:44;;;;;;;6.93;5.15;;;;;;;24.22;53.58;100177.59;4114061;28;20477;-65
2022/08/26 01:37:49;;;;;;;8.82;6.10;;;;;;;24.17;53.59;100174.31;4134024;28;20038;-65
2022/08/26 01:39:56;;;;;;;7.60;5.40;;;;;;;24.08;53.69;100182.69;4132185;28;20057;-65
2022/08/26 01:42:01;;;;;;;6.20;5.13;;;;;;;24.03;53.98;100188.22;4142678;28;20081;-65
2022/08/26 01:44:07;;;;;;;7.18;5.22;;;;;;;24.07;54.13;100178.31;4146631;28;20065;-65
2022/08/26 01:46:13;;;;;;;7.53;5.40;;;;;;;24.08;54.00;100180.03;4146577;28;20109;-65
2022/08/26 01:48:20;;;;;;;;;;;;;;;23.99;54.30;100182.19;4140328;28;20046;-64
2022/08/26 01:50:27;;;;;;;7.57;5.13;;;;;;;24.06;54.13;100185.41;4148246;28;19958;-64
2022/08/26 01:52:35;;;;;;;6.63;5.25;;;;;;;24.05;54.20;100178.41;4143569;28;20679;-64
2022/08/26 01:54:38;;;;;;;7.88;5.70;;;;;;;24.05;54.14;100178.41;4142995;28;20038;-64
2022/08/26 01:56:43;;;;;;;7.60;5.30;;;;;;;24.11;54.26;100180.75;4143576;28;20432;-64
2022/08/26 01:58:50;;;;;;;7.88;5.63;;;;;;;24.16;54.12;100177.88;4148890;28;20036;-65
2022/08/26 02:00:53;;;;;;;7.90;5.35;;;;;;;24.17;54.04;100187.59;4146919;28;20048;-65
2022/08/26 02:05:19;;;;;;;8.82;5.95;;;;;;;24.25;53.95;100184.56;4148055;28;20554;-65
2022/08/26 02:07:23;;;;;;;7.25;4.95;;;;;;;24.21;53.96;100186.47;4139802;28;20542;-65
2022/08/26 02:09:28;;;;;;;8.38;5.75;;;;;;;24.21;53.79;100186.47;4141447;28;20503;-65
2022/08/26 02:11:33;;;;;;;10.82;6.43;;;;;;;24.16;54.10;100188.50;4147871;28;20455;-65
2022/08/26 02:13:44;;;;;;;7.72;6.00;;;;;;;24.04;54.16;100189.94;4147812;28;20566;-65
2022/08/26 02:15:48;;;;;;;8.25;6.30;;;;;;;23.94;53.94;100183.34;4161465;28;20050;-65
2022/08/26 02:17:52;;;;;;;7.35;5.15;;;;;;;23.92;53.98;100180.75;4151896;28;20044;-64
2022/08/26 02:19:56;;;;;;;9.48;5.43;;;;;;;24.00;53.78;100183.91;4146406;28;20096;-65
2022/08/26 02:22:02;;;;;;;6.90;4.78;;;;;;;24.01;53.24;100182.13;4138605;28;20038;-65
2022/08/26 02:24:10;;;;;;;7.10;4.82;;;;;;;24.06;53.24;100177.44;4147605;28;20057;-65
2022/08/26 02:26:16;;;;;;;7.45;5.63;;;;;;;24.02;53.31;100182.03;4136753;28;20471;-65
2022/08/26 02:28:21;;;;;;;8.75;5.85;;;;;;;24.00;53.48;100181.25;4140515;28;20034;-65
2022/08/26 02:30:32;;;;;;;8.88;6.15;;;;;;;23.93;53.36;100178.94;4144367;28;20049;-65
2022/08/26 02:32:36;;;;;;;6.40;5.15;;;;;;;23.94;53.38;100173.56;4137023;28;20085;-65
2022/08/26 02:34:41;;;;;;;8.18;5.35;;;;;;;23.90;52.95;100182.59;4139446;28;20121;-65
2022/08/26 02:36:44;;;;;;;6.93;5.07;;;;;;;23.88;52.89;100180.00;4135493;28;20532;-65
2022/08/26 02:38:48;;;;;;;11.82;5.70;;;;;;;23.92;52.77;100170.13;4146561;28;20084;-65
2022/08/26 02:40:53;;;;;;;7.00;4.93;;;;;;;23.88;52.98;100172.03;4146788;28;20049;-65
2022/08/26 02:42:57;;;;;;;7.25;5.18;;;;;;;23.88;52.62;100171.19;4138835;28;20404;-64
2022/08/26 02:45:00;;;;;;;8.35;5.65;;;;;;;23.83;52.95;100182.00;4146649;28;20124;-64
2022/08/26 02:47:06;;;;;;;7.88;5.55;;;;;;;23.80;53.01;100182.13;4148512;28;20523;-64
2022/08/26 02:49:09;;;;;;;8.55;5.20;;;;;;;23.81;52.88;100180.34;4142000;28;20038;-64
2022/08/26 02:51:12;;;;;;;9.10;5.60;;;;;;;23.76;52.92;100191.16;4134520;28;20035;-64
2022/08/26 02:53:16;;;;;;;7.15;5.03;;;;;;;23.73;53.11;100190.44;4134068;28;20496;-64
2022/08/26 02:55:26;;;;;;;8.48;5.80;;;;;;;23.75;53.09;100188.59;4134653;28;20035;-64
2022/08/26 02:57:30;;;;;;;8.55;5.15;;;;;;;23.77;52.95;100194.69;4134590;28;20034;-64
2022/08/26 02:59:34;;;;;;;9.50;5.78;;;;;;;23.72;52.85;100194.03;4133168;28;20050;-64
2022/08/26 03:01:37;;;;;;;8.02;5.45;;;;;;;23.70;52.95;100192.31;4134287;28;20138;-64
2022/08/26 03:03:42;;;;;;;6.28;4.95;;;;;;;23.72;53.08;100194.03;4146247;28;20034;-64
2022/08/26 03:05:45;;;;;;;8.10;5.55;;;;;;;23.69;52.92;100198.53;4147763;28;20041;-64
2022/08/26 03:07:48;;;;;;;8.15;6.15;;;;;;;23.73;52.79;100201.94;4150710;28;20045;-65
2022/08/26 03:09:52;;;;;;;6.60;5.30;;;;;;;23.75;52.46;100189.44;4150586;28;20512;-65
2022/08/26 03:11:55;;;;;;;9.20;5.60;;;;;;;23.72;52.51;100194.88;4148914;28;20037;-65
2022/08/26 03:13:59;;;;;;;6.93;4.78;;;;;;;23.78;52.29;100188.44;4150435;28;20377;-65
2022/08/26 03:16:03;;;;;;;8.95;5.43;;;;;;;23.81;51.94;100190.97;4148395;28;20045;-65
2022/08/26 03:18:07;;;;;;;10.60;5.67;;;;;;;23.82;51.85;100190.03;4134228;28;20034;-65
2022/08/26 03:20:11;;;;;;;8.20;5.47;;;;;;;23.78;51.84;100191.94;4132847;28;20293;-65
2022/08/26 03:22:18;;;;;;;8.07;5.20;;;;;;;23.76;52.16;100195.59;4139660;28;20072;-64
2022/08/26 03:24:22;;;;;;;11.77;5.93;;;;;;;23.78;52.37;100185.78;4149117;28;20053;-64
2022/08/26 03:26:27;;;;;;;7.45;5.35;;;;;;;23.78;52.69;100188.44;4165449;28;20045;-64
2022/08/26 03:28:31;;;;;;;;;;;;;;;23.65;52.79;100181.00;4165939;28;20076;-64
2022/08/26 03:30:38;;;;;;;7.40;5.35;;;;;;;23.68;52.66;100188.88;4156156;28;19921;-64
2022/08/26 03:32:47;;;;;;;8.23;5.40;;;;;;;23.73;52.05;100186.00;4133653;28;20496;-64
2022/08/26 03:34:50;;;;;;;6.88;5.40;;;;;;;23.75;52.33;100183.28;4134128;28;20038;-65
2022/08/26 03:36:54;;;;;;;9.43;5.72;;;;;;;23.75;52.21;100193.91;4133917;28;20042;-65
2022/08/26 03:38:58;;;;;;;7.93;5.90;;;;;;;23.73;52.24;100190.44;4138767;28;20042;-66
2022/08/26 03:41:00;;;;;;;7.15;4.93;;;;;;;23.78;52.20;100185.78;4146412;28;20496;-68
2022/08/26 03:43:07;;;;;;;11.43;5.25;;;;;;;23.90;51.90;100189.72;4146818;28;20050;-68
2022/08/26 03:45:14;;;;;;;7.20;4.85;;;;;;;23.99;51.20;100190.16;4156769;28;20132;-68
2022/08/26 03:47:17;;;;;;;6.57;5.35;;;;;;;24.02;51.18;100194.44;4148580;28;20048;-68
2022/08/26 03:49:20;;;;;;;8.50;5.10;;;;;;;24.03;50.83;100188.22;4142771;28;20132;-68
2022/08/26 03:51:23;;;;;;;8.38;4.63;;;;;;;24.04;50.68;100187.28;4142785;28;20062;-69
2022/08/26 03:53:27;;;;;;;9.48;5.13;;;;;;;24.00;50.40;100183.91;4144923;28;20488;-69
2022/08/26 03:55:31;;;;;;;;;;;;;;;23.88;50.61;100185.31;4149947;28;20460;-69
2022/08/26 03:57:35;;;;;;;6.47;4.70;;;;;;;23.87;50.41;100182.75;4150625;28;20028;-68
2022/08/26 03:59:38;;;;;;;6.88;5.40;;;;;;;23.90;50.34;100182.59;4147829;28;20468;-69
2022/08/26 04:01:43;;;;;;;9.60;5.10;;;;;;;23.92;50.27;100185.19;4146044;28;20045;-69
2022/08/26 04:03:58;;;;;;;9.05;5.35;;;;;;;23.96;50.21;100185.00;4148337;28;20522;-68
2022/08/26 04:06:02;;;;;;;10.30;5.32;;;;;;;24.01;50.06;100190.94;4139841;28;20109;-68
2022/08/26 04:08:06;;;;;;;8.32;4.65;;;;;;;23.98;49.97;100177.81;4161301;28;20107;-69
2022/08/26 04:10:12;;;;;;;7.77;4.60;;;;;;;23.97;49.94;100186.69;4141437;28;20076;-69
2022/08/26 04:12:17;;;;;;;8.73;5.25;;;;;;;23.96;49.91;100186.75;4146739;28;20121;-69
2022/08/26 04:14:23;;;;;;;7.97;4.57;;;;;;;23.92;49.72;100191.38;4143738;28;20046;-69
2022/08/26 04:16:28;;;;;;;8.77;5.65;;;;;;;23.89;49.82;100196.81;4120297;28;20527;-69
2022/08/26 04:18:31;;;;;;;8.32;4.20;;;;;;;23.86;49.88;100199.63;4144086;28;20571;-69
2022/08/26 04:20:39;;;;;;;8.82;5.30;;;;;;;23.83;50.03;100197.94;4144282;28;20046;-69
2022/08/26 04:22:42;;;;;;;9.85;5.32;;;;;;;23.79;50.19;100195.47;4143726;28;20510;-69
2022/08/26 04:24:45;;;;;;;6.78;5.10;;;;;;;23.83;49.98;100194.38;4149141;28;20041;-69
2022/08/26 04:26:49;;;;;;;8.75;5.32;;;;;;;23.84;49.91;100191.66;4142966;28;20034;-68
2022/08/26 04:28:54;;;;;;;10.43;5.47;;;;;;;23.85;49.75;100193.41;4146877;28;20030;-69
2022/08/26 04:30:57;;;;;;;9.15;5.20;;;;;;;23.84;49.99;100198.78;4148865;28;20419;-69
2022/08/26 04:33:03;;;;;;;8.88;5.15;;;;;;;23.85;49.68;100196.06;4144731;28;20034;-69
2022/08/26 04:35:15;;;;;;;8.35;5.10;;;;;;;23.81;49.61;100196.25;4148646;28;20034;-69
2022/08/26 04:37:18;;;;;;;7.95;5.38;;;;;;;23.82;49.66;100190.03;4140995;28;20038;-69
2022/08/26 04:39:23;;;;;;;7.03;5.00;;;;;;;23.78;49.76;100196.41;4146291;28;20058;-68
2022/08/26 04:41:30;;;;;;;8.95;5.35;;;;;;;23.82;50.13;100193.53;4144370;28;20483;-68
2022/08/26 04:43:35;;;;;;;9.40;5.07;;;;;;;23.85;49.84;100200.50;4142057;28;20098;-68
2022/08/26 04:45:40;;;;;;;11.43;6.20;;;;;;;23.84;49.79;100188.16;4145371;28;20038;-69
2022/08/26 04:47:43;;;;;;;9.70;5.25;;;;;;;23.84;49.99;100193.47;4144727;28;20072;-69
2022/08/26 04:49:46;;;;;;;6.63;4.90;;;;;;;23.84;50.04;100198.78;4145813;28;20080;-68
2022/08/26 04:51:49;;;;;;;8.73;5.32;;;;;;;23.86;50.34;100197.81;4147681;28;20044;-69
2022/08/26 04:53:52;;;;;;;7.65;5.55;;;;;;;23.85;50.35;100195.19;4145863;28;20048;-68
2022/08/26 04:55:55;;;;;;;6.22;4.63;;;;;;;23.85;50.47;100203.16;4122584;28;20046;-69
2022/08/26 04:57:59;;;;;;;10.00;5.18;;;;;;;23.84;50.76;100201.44;4158078;28;20069;-68
2022/08/26 05:00:05;;;;;;;9.82;6.15;;;;;;;23.86;50.81;100204.94;4145120;28;20451;-69
2022/08/26 05:02:07;;;;;;;7.82;5.38;;;;;;;23.83;50.41;100208.53;4147097;28;20038;-69
2022/08/26 05:04:11;;;;;;;7.25;5.40;;;;;;;23.85;50.27;100205.81;4136430;28;20044;-69
2022/08/26 05:06:19;;;;;;;10.52;5.60;;;;;;;23.85;50.41;100209.31;4147968;28;20065;-68
2022/08/26 05:08:24;;;;;;;8.43;5.20;;;;;;;23.88;50.47;100211.88;4147167;28;20045;-68
2022/08/26 05:10:26;;;;;;;8.70;5.83;;;;;;;23.85;50.47;100214.63;4144298;28;20042;-69
2022/08/26 05:12:30;;;;;;;9.50;5.72;;;;;;;23.84;50.38;100212.06;4144723;28;20297;-68
2022/08/26 05:14:33;;;;;;;7.07;5.60;;;;;;;23.84;50.61;100215.56;4147578;28;20439;-68
2022/08/26 05:16:37;;;;;;;10.05;6.00;;;;;;;23.84;50.34;100212.91;4146941;28;20392;-68
2022/08/26 05:18:43;;;;;;;18.55;6.55;;;;;;;23.81;49.98;100210.38;4137433;28;20100;-68
2022/08/26 05:20:50;;;;;;;9.63;5.90;;;;;;;23.84;49.66;100212.06;4138525;28;20046;-68
2022/08/26 05:22:56;;;;;;;9.13;5.20;;;;;;;23.79;49.85;100200.78;4143690;28;20073;-68
2022/08/26 05:24:59;;;;;;;7.78;5.20;;;;;;;23.83;49.97;100213.84;4157878;28;20121;-69
2022/08/26 05:27:02;;;;;;;7.78;4.93;;;;;;;23.86;50.13;100211.09;4147340;28;20037;-68
2022/08/26 05:29:13;;;;;;;7.75;5.43;;;;;;;23.91;50.36;100210.03;4146281;28;20038;-68
2022/08/26 05:31:21;;;;;;;7.78;5.22;;;;;;;23.91;50.68;100205.56;4142363;28;20034;-68
2022/08/26 05:33:25;;;;;;;7.32;5.10;;;;;;;23.93;50.89;100214.31;4142014;28;20431;-68
2022/08/26 05:35:30;;;;;;;;;;;;;;;23.86;50.88;100218.22;4143559;28;20567;-69
2022/08/26 05:37:33;;;;;;;13.10;6.50;;;;;;;23.91;51.07;100218.84;4143205;28;19925;-69
2022/08/26 05:39:37;;;;;;;10.45;6.45;;;;;;;23.93;51.17;100221.44;4145049;28;20037;-69
2022/08/26 05:41:43;;;;;;;11.05;6.47;;;;;;;23.94;51.43;100221.34;4147316;28;20117;-69
2022/08/26 05:43:47;;;;;;;14.52;6.38;;;;;;;23.94;50.55;100226.66;4145658;28;20037;-69
2022/08/26 05:45:50;;;;;;;12.73;6.38;;;;;;;23.90;50.86;100229.53;4142867;28;20069;-69
2022/08/26 05:47:54;;;;;;;9.30;5.60;;;;;;;23.88;50.87;100232.25;4142840;28;20034;-68
2022/08/26 05:49:59;;;;;;;11.95;6.20;;;;;;;23.88;50.38;100237.56;4147321;28;20041;-68
2022/08/26 05:52:02;;;;;;;12.80;6.97;;;;;;;23.83;50.55;100235.09;4146275;28;20044;-69
2022/08/26 05:54:05;;;;;;;12.57;7.35;;;;;;;23.81;50.34;100241.41;4147342;28;20444;-69
2022/08/26 05:56:11;;;;;;;7.72;5.20;;;;;;;23.75;50.29;100242.53;4144165;28;20120;-68
2022/08/26 05:58:15;;;;;;;10.55;6.57;;;;;;;23.82;50.43;100235.16;4143491;28;20133;-69
2022/08/26 06:00:19;;;;;;;13.00;5.95;;;;;;;23.83;49.99;100239.53;4145311;28;20503;-68
2022/08/26 06:02:23;;;;;;;12.38;6.18;;;;;;;23.80;50.14;100237.00;4147192;28;20395;-68
2022/08/26 06:04:26;;;;;;;9.05;5.40;;;;;;;23.84;50.31;100241.25;4145300;28;20038;-68
2022/08/26 06:06:34;;;;;;;9.13;5.80;;;;;;;23.95;50.55;100228.41;4144883;28;20132;-68
2022/08/26 06:08:37;;;;;;;6.78;5.15;;;;;;;24.02;51.05;100239.59;4141894;28;20057;-68
2022/08/26 06:10:46;;;;;;;9.20;5.47;;;;;;;24.03;50.93;100236.91;4146316;28;20048;-69
2022/08/26 06:12:50;;;;;;;10.90;5.60;;;;;;;24.02;51.20;100248.44;4144237;28;20108;-68
2022/08/26 06:14:53;;;;;;;11.32;6.40;;;;;;;24.03;50.61;100247.50;4140324;28;20419;-69
2022/08/26 06:16:56;;;;;;;10.73;6.65;;;;;;;24.01;50.36;100254.66;4152935;28;20577;-68
2022/08/26 06:19:01;;;;;;;7.60;4.70;;;;;;;23.97;50.27;100252.22;4140672;28;20049;-68
2022/08/26 06:21:13;;;;;;;8.10;5.50;;;;;;;23.98;50.48;100252.16;4145647;28;20054;-69
2022/08/26 06:25:42;;;;;;;9.50;5.80;;;;;;;24.08;50.21;100255.28;4137649;28;20117;-68
2022/08/26 06:27:45;;;;;;;14.13;6.93;;;;;;;24.15;50.06;100250.53;4144743;28;20037;-69
2022/08/26 06:29:48;;;;;;;12.73;6.47;;;;;;;24.19;50.35;100252.97;4141546;28;20173;-68
2022/08/26 06:31:51;;;;;;;9.88;7.35;;;;;;;24.26;48.56;100253.56;4141361;28;20045;-69
2022/08/26 06:33:54;;;;;;;9.87;6.70;;;;;;;24.14;48.68;100254.13;4142528;28;20033;-69
2022/08/26 06:35:59;;;;;;;15.30;6.93;;;;;;;23.99;48.86;100250.34;4138445;28;20415;-69
2022/08/26 06:38:02;;;;;;;12.48;7.00;;;;;;;23.95;49.24;100256.75;4134844;28;20161;-69
2022/08/26 06:40:08;;;;;;;11.00;7.43;;;;;;;23.91;49.06;100257.81;4143055;28;20057;-68
2022/08/26 06:42:13;;;;;;;14.57;7.03;;;;;;;23.88;49.25;100258.81;4144130;28;20038;-68
2022/08/26 06:44:17;;;;;;;14.57;6.60;;;;;;;23.92;49.30;100262.19;4144081;28;20159;-68
2022/08/26 06:46:21;;;;;;;12.68;6.75;;;;;;;24.00;49.27;100262.72;4141868;28;20034;-68
2022/08/26 06:48:27;;;;;;;11.18;6.75;;;;;;;23.97;49.37;100269.00;4140909;28;20367;-68
2022/08/26 06:50:30;;;;;;;11.57;6.78;;;;;;;23.99;49.67;100255.66;4144883;28;20038;-68
2022/08/26 06:52:33;;;;;;;15.82;7.13;;;;;;;24.03;49.57;100266.09;4140846;28;20034;-68
2022/08/26 06:54:41;;;;;;;19.95;8.65;;;;;;;24.13;48.83;100273.66;4140341;28;20039;-69
2022/08/26 06:56:46;;;;;;;12.45;6.80;;;;;;;24.16;49.04;100262.88;4139769;28;20140;-69
2022/08/26 06:58:50;;;;;;;14.10;7.22;;;;;;;24.23;49.01;100265.19;4145194;28;20042;-68
2022/08/26 07:00:53;;;;;;;14.52;7.50;;;;;;;24.29;48.97;100264.03;4142926;28;20385;-68
2022/08/26 07:02:56;;;;;;;22.15;8.90;;;;;;;24.36;48.95;100260.16;4138374;28;20045;-68
2022/08/26 07:04:59;;;;;;;16.45;7.20;;;;;;;24.42;49.00;100263.47;4138434;28;20130;-68
2022/08/26 07:07:02;;;;;;;17.98;8.77;;;;;;;24.44;48.92;100272.22;4141803;28;20062;-68
2022/08/26 07:09:07;;;;;;;12.65;8.13;;;;;;;24.33;49.24;100270.94;4143311;28;20411;-68
2022/08/26 07:11:12;;;;;;;18.17;8.18;;;;;;;24.32;49.42;100271.84;4149669;28;20041;-68
2022/08/26 07:13:17;;;;;;;15.52;8.00;;;;;;;24.40;49.15;100268.88;4143492;28;20052;-68
2022/08/26 07:15:34;;;;;;;19.20;8.73;;;;;;;24.45;49.30;100268.66;4150415;28;20041;-68
2022/08/26 07:17:37;;;;;;;15.77;8.02;;;;;;;24.47;48.86;100272.94;4142001;28;20434;-69
2022/08/26 07:19:42;;;;;;;12.90;7.53;;;;;;;24.43;49.13;100276.69;4146320;28;20041;-67
2022/08/26 07:21:44;;;;;;;13.30;7.20;;;;;;;24.37;49.25;100264.56;4148274;28;20084;-68
2022/08/26 07:23:49;;;;;;;11.82;6.18;;;;;;;24.35;49.28;100273.53;4142041;28;20040;-67
2022/08/26 07:25:52;;;;;;;18.05;7.45;;;;;;;24.43;48.57;100276.69;4136285;28;20034;-69
2022/08/26 07:27:55;;;;;;;12.50;6.65;;;;;;;24.46;48.55;100271.22;4140705;28;20034;-67
2022/08/26 07:29:59;;;;;;;13.48;6.50;;;;;;;24.55;48.69;100275.25;4133853;28;20077;-67
2022/08/26 07:32:05;;;;;;;13.02;7.75;;;;;;;24.67;48.45;100273.84;4145370;28;20069;-67
2022/08/26 07:34:09;;;;;;;9.95;7.25;;;;;;;24.74;47.87;100272.63;4144448;28;20053;-68
2022/08/26 07:36:13;;;;;;;12.10;6.53;;;;;;;24.66;48.26;100265.03;4144500;28;20486;-67
2022/08/26 07:38:16;;;;;;;18.17;7.55;;;;;;;24.65;47.82;100273.03;4142056;28;20058;-68
2022/08/26 07:40:20;;;;;;;14.70;8.35;;;;;;;24.61;47.81;100272.34;4144938;28;20125;-67
2022/08/26 07:42:24;;;;;;;26.83;8.20;;;;;;;24.65;48.05;100271.25;4139565;28;20042;-68
2022/08/26 07:44:27;;;;;;;12.15;7.47;;;;;;;24.64;48.15;100274.00;4146611;28;20369;-67
2022/08/26 07:46:31;;;;;;;12.38;7.43;;;;;;;24.74;48.02;100273.47;4145302;28;20042;-67
2022/08/26 07:48:35;;;;;;;14.60;8.05;;;;;;;24.82;47.71;100269.59;4141616;28;20042;-67
2022/08/26 07:50:40;;;;;;;19.92;7.90;;;;;;;24.83;48.00;100271.31;4137394;28;20517;-67
2022/08/26 07:52:52;;;;;;;14.18;7.78;;;;;;;24.89;47.30;100279.00;4143362;28;20407;-67
2022/08/26 07:54:56;;;;;;;17.42;6.95;;;;;;;24.83;47.50;100269.50;4142498;28;20038;-67
2022/08/26 07:56:59;;;;;;;13.13;6.82;;;;;;;24.77;47.53;100283.09;4145045;28;20052;-67
2022/08/26 07:59:06;;;;;;;13.93;6.78;;;;;;;24.74;47.63;100273.47;4148348;28;20125;-67
2022/08/26 08:01:16;;;;;;;13.80;7.25;;;;;;;24.78;47.62;100282.19;4141303;28;20042;-68
2022/08/26 08:03:21;;;;;;;20.00;8.00;;;;;;;24.82;47.66;100273.09;4146102;28;20045;-67
2022/08/26 08:05:25;;;;;;;15.57;6.10;;;;;;;24.94;47.31;100274.31;4140003;28;20053;-68
2022/08/26 08:07:35;;;;;;;11.30;7.47;;;;;;;24.94;47.04;100282.31;4142472;28;20061;-67
2022/08/26 08:09:48;;;;;;;21.17;7.90;;;;;;;24.97;46.96;100281.25;4148698;28;20065;-67
2022/08/26 08:11:51;;;;;;;12.88;7.57;;;;;;;24.95;46.94;100273.38;4142877;28;20030;-67
2022/08/26 08:13:55;;;;;;;11.23;6.77;;;;;;;24.95;47.17;100273.38;4135548;28;20042;-67
2022/08/26 08:15:59;;;;;;;15.52;7.65;;;;;;;25.03;47.20;100271.19;4142699;28;20034;-67
2022/08/26 08:18:02;;;;;;;18.70;7.70;;;;;;;25.15;47.22;100277.72;4139703;28;20508;-67
2022/08/26 08:20:08;;;;;;;11.60;6.70;;;;;;;25.04;47.17;100278.25;4141716;28;20049;-67
2022/08/26 08:22:13;;;;;;;9.07;5.93;;;;;;;25.03;47.18;100279.19;4145094;28;20038;-67
2022/08/26 08:24:21;;;;;;;10.63;6.70;;;;;;;24.91;47.70;100282.41;4143562;28;20409;-67
2022/08/26 08:26:26;;;;;;;19.50;8.02;;;;;;;24.93;47.66;100275.25;4141434;28;20038;-67
2022/08/26 08:28:29;;;;;;;13.93;8.73;;;;;;;25.09;47.15;100276.22;4138084;28;20581;-67
2022/08/26 08:30:31;;;;;;;21.23;7.82;;;;;;;25.13;47.15;100279.59;4145450;28;20042;-68
2022/08/26 08:32:38;;;;;;;14.88;8.32;;;;;;;25.18;46.84;100285.53;4142206;28;20057;-68
2022/08/26 08:34:41;;;;;;;15.52;8.23;;;;;;;25.46;46.31;100278.00;4142610;28;20516;-67
2022/08/26 08:36:50;;;;;;;20.48;8.77;;;;;;;25.53;45.90;100274.94;4146062;28;20046;-67
2022/08/26 08:38:55;;;;;;;13.95;8.43;;;;;;;25.51;45.76;100275.97;4144694;28;20511;-67
2022/08/26 08:41:00;;;;;;;;;;;;;;;25.40;46.22;100273.84;4144221;28;20346;-68
2022/08/26 08:43:10;;;;;;;14.25;8.18;;;;;;;25.50;46.24;100274.25;4144644;28;19932;-67
2022/08/26 08:45:17;;;;;;;21.67;8.52;;;;;;;25.65;45.70;100262.81;4140276;28;20046;-67
2022/08/26 08:47:29;;;;;;;10.90;7.32;;;;;;;25.59;45.98;100271.97;4158413;28;20562;-67
2022/08/26 08:49:34;;;;;;;11.35;7.75;;;;;;;25.56;46.46;100268.63;4137868;28;20046;-67
2022/08/26 08:51:43;;;;;;;10.20;7.32;;;;;;;25.59;46.55;100269.31;4138650;28;20042;-71
2022/08/26 08:53:51;;;;;;;11.65;8.20;;;;;;;25.62;46.16;100270.94;4140621;28;20076;-68
2022/08/26 08:56:04;;;;;;;16.33;9.13;;;;;;;25.78;45.82;100274.53;4138224;28;20053;-67
2022/08/26 08:58:17;;;;;;;15.60;8.10;;;;;;;25.80;46.04;100271.78;4147902;28;20458;-68
2022/08/26 09:00:23;;;;;;;14.50;8.48;;;;;;;25.89;45.97;100278.44;4140194;28;20053;-68
2022/08/26 09:02:37;;;;;;;16.38;8.45;;;;;;;25.89;46.18;100265.13;4144765;28;20042;-68
2022/08/26 09:05:09;;;;;;;15.65;7.40;;;;;;;25.91;45.77;100273.91;4142230;28;20044;-70
2022/08/26 09:07:20;;;;;;;15.85;7.43;;;;;;;25.90;46.35;100269.50;4124210;28;20054;-68
2022/08/26 09:09:32;;;;;;;12.77;7.53;;;;;;;25.98;46.21;100269.09;4143680;28;20389;-68
2022/08/26 09:11:36;;;;;;;19.83;7.70;;;;;;;26.13;45.89;100265.66;4147201;28;20038;-67
2022/08/26 09:13:44;;;;;;;15.85;7.90;;;;;;;26.34;45.13;100268.94;4146423;28;20463;-68
2022/08/26 09:15:57;;;;;;;16.52;7.97;;;;;;;26.50;45.02;100266.28;4132262;28;20038;-70
2022/08/26 09:18:09;;;;;;;16.05;8.60;;;;;;;26.72;44.38;100260.69;4147157;28;20057;-71
2022/08/26 09:20:20;;;;;;;13.05;8.10;;;;;;;26.68;45.10;100261.78;4149191;28;20547;-71
2022/08/26 09:22:31;;;;;;;16.95;8.35;;;;;;;26.85;44.00;100260.81;4139338;28;20038;-70
2022/08/26 09:24:42;;;;;;;17.60;8.05;;;;;;;26.88;43.96;100263.31;4146652;28;20062;-71
2022/08/26 09:26:51;;;;;;;12.30;8.40;;;;;;;26.86;43.93;100267.88;4142775;28;20129;-71
2022/08/26 09:28:57;;;;;;;15.80;8.73;;;;;;;26.92;44.48;100264.00;4146243;28;20084;-71
2022/08/26 09:31:09;;;;;;;12.85;8.45;;;;;;;27.02;43.64;100267.88;4142048;28;20480;-71
2022/08/26 09:33:17;;;;;;;22.40;8.48;;;;;;;26.91;43.66;100264.94;4137725;28;20045;-70
2022/08/26 09:35:29;;;;;;;18.75;8.57;;;;;;;26.67;44.47;100254.69;4159467;28;20069;-71
2022/08/26 09:37:35;;;;;;;15.00;8.15;;;;;;;26.49;44.64;100261.94;4146888;28;20080;-71
2022/08/26 09:39:40;;;;;;;16.60;7.85;;;;;;;26.48;45.13;100260.19;4142799;28;20034;-71
2022/08/26 09:41:43;;;;;;;15.43;8.57;;;;;;;26.44;45.22;100255.97;4136068;28;20130;-71
2022/08/26 09:44:11;;;;;;;16.73;8.35;;;;;;;26.46;45.01;100257.63;4141889;28;20033;-72
2022/08/26 09:46:22;;;;;;;13.20;8.23;;;;;;;26.62;45.20;100248.75;4139759;28;20520;-72
2022/08/26 09:48:29;;;;;;;14.95;7.70;;;;;;;26.77;44.10;100253.25;4137381;28;20137;-73